SHRKS47 EGLA-EGBP

Flight info

Callsign SHRKS47
Flight time 0h 56m
Altitude 5000
Route DCT
Aircraft EC45/L-SBDFGRY/S

Departure

Time 2026-04-26 15:07
Airport Bodmin Airfield (EGLA)

Arrival

Time 2026-04-26 16:03
Airport Cotswold Airport (EGBP)
Time Latitude Longitude Altitude Speed Heading
2026-04-26 14:56 50.50003 -4.66487 654 ft 0 kts 201°
2026-04-26 15:02 50.49991 -4.66493 671 ft 4 kts 135°
2026-04-26 15:02 50.49962 -4.66476 670 ft 2 kts 131°
2026-04-26 15:03 50.49939 -4.66463 672 ft 4 kts 128°
2026-04-26 15:03 50.49927 -4.66447 671 ft 3 kts 126°
2026-04-26 15:03 50.49906 -4.66407 673 ft 9 kts 124°
2026-04-26 15:03 50.49874 -4.66356 672 ft 5 kts 124°
2026-04-26 15:04 50.49860 -4.66322 656 ft 5 kts 124°
2026-04-26 15:04 50.49849 -4.66303 654 ft 0 kts 135°
2026-04-26 15:05 50.49837 -4.66289 658 ft 6 kts 125°
2026-04-26 15:05 50.49827 -4.66272 656 ft 4 kts 132°
2026-04-26 15:05 50.49806 -4.66244 664 ft 4 kts 202°
2026-04-26 15:05 50.49804 -4.66275 658 ft 2 kts 308°
2026-04-26 15:06 50.49881 -4.66404 741 ft 50 kts 301°
2026-04-26 15:06 50.50213 -4.66976 991 ft 88 kts 308°
2026-04-26 15:06 50.50696 -4.67788 1128 ft 114 kts 308°
2026-04-26 15:06 50.51390 -4.68154 1185 ft 125 kts 22°
2026-04-26 15:07 50.52735 -4.66017 1154 ft 132 kts 49°
2026-04-26 15:07 50.53325 -4.64977 1343 ft 124 kts 50°
2026-04-26 15:07 50.53883 -4.64016 1584 ft 118 kts 50°
2026-04-26 15:08 50.54438 -4.63074 1840 ft 116 kts 50°
2026-04-26 15:08 50.54970 -4.62140 2100 ft 115 kts 53°
2026-04-26 15:08 50.55451 -4.61142 2316 ft 115 kts 55°
2026-04-26 15:08 50.55931 -4.60119 2424 ft 118 kts 56°
2026-04-26 15:09 50.56426 -4.59080 2464 ft 119 kts 54°
2026-04-26 15:09 50.56924 -4.58039 2479 ft 119 kts 55°
2026-04-26 15:09 50.57429 -4.56981 2458 ft 127 kts 56°
2026-04-26 15:09 50.57957 -4.55858 2491 ft 129 kts 56°
2026-04-26 15:10 50.58489 -4.54727 2490 ft 128 kts 55°
2026-04-26 15:10 50.58843 -4.53977 2494 ft 128 kts 55°
2026-04-26 15:10 50.59553 -4.52476 2481 ft 127 kts 55°
2026-04-26 15:10 50.60055 -4.51272 2450 ft 137 kts 60°
2026-04-26 15:11 50.60532 -4.49992 2505 ft 132 kts 61°
2026-04-26 15:11 50.61001 -4.48749 2501 ft 133 kts 61°
2026-04-26 15:11 50.61478 -4.47501 2520 ft 133 kts 59°
2026-04-26 15:11 50.61951 -4.46267 2463 ft 132 kts 62°
2026-04-26 15:12 50.62420 -4.45021 2479 ft 132 kts 62°
2026-04-26 15:12 50.62890 -4.43770 2477 ft 133 kts 61°
2026-04-26 15:12 50.63357 -4.42512 2529 ft 132 kts 62°
2026-04-26 15:12 50.63822 -4.41260 2510 ft 133 kts 62°
2026-04-26 15:13 50.64287 -4.40019 2524 ft 133 kts 60°
2026-04-26 15:13 50.64753 -4.38775 2469 ft 132 kts 62°
2026-04-26 15:13 50.65218 -4.37523 2496 ft 133 kts 61°
2026-04-26 15:13 50.65688 -4.36253 2491 ft 134 kts 62°
2026-04-26 15:14 50.66159 -4.34986 2505 ft 134 kts 61°
2026-04-26 15:14 50.66628 -4.33718 2494 ft 134 kts 61°
2026-04-26 15:14 50.67096 -4.32451 2495 ft 133 kts 61°
2026-04-26 15:14 50.67562 -4.31180 2497 ft 134 kts 61°
2026-04-26 15:15 50.68023 -4.29933 2496 ft 132 kts 61°
2026-04-26 15:15 50.68488 -4.28673 2506 ft 134 kts 60°
2026-04-26 15:15 50.68950 -4.27408 2511 ft 133 kts 61°
2026-04-26 15:15 50.69414 -4.26136 2511 ft 133 kts 61°
2026-04-26 15:16 50.69875 -4.24871 2501 ft 133 kts 61°
2026-04-26 15:16 50.70362 -4.23629 2490 ft 134 kts 57°
2026-04-26 15:16 50.70890 -4.22409 2488 ft 134 kts 56°
2026-04-26 15:16 50.71410 -4.21218 2485 ft 134 kts 56°
2026-04-26 15:17 50.71939 -4.20005 2494 ft 135 kts 56°
2026-04-26 15:17 50.72290 -4.19200 2486 ft 135 kts 56°
2026-04-26 15:17 50.73002 -4.17573 2498 ft 135 kts 56°
2026-04-26 15:17 50.73532 -4.16358 2492 ft 134 kts 56°
2026-04-26 15:18 50.74065 -4.15141 2497 ft 135 kts 56°
2026-04-26 15:18 50.74594 -4.13927 2490 ft 134 kts 56°
2026-04-26 15:18 50.75123 -4.12710 2485 ft 134 kts 56°
2026-04-26 15:18 50.75655 -4.11495 2492 ft 135 kts 56°
2026-04-26 15:19 50.76188 -4.10281 2490 ft 134 kts 56°
2026-04-26 15:19 50.76722 -4.09065 2495 ft 135 kts 56°
2026-04-26 15:19 50.77257 -4.07850 2496 ft 135 kts 56°
2026-04-26 15:19 50.77760 -4.06704 2504 ft 135 kts 57°
2026-04-26 15:20 50.78295 -4.05491 2501 ft 135 kts 57°
2026-04-26 15:20 50.78834 -4.04273 2502 ft 135 kts 56°
2026-04-26 15:20 50.79369 -4.03062 2498 ft 134 kts 56°
2026-04-26 15:20 50.79900 -4.01868 2502 ft 134 kts 56°
2026-04-26 15:21 50.80438 -4.00659 2498 ft 135 kts 57°
2026-04-26 15:21 50.80979 -3.99450 2518 ft 135 kts 54°
2026-04-26 15:21 50.81516 -3.98247 2506 ft 135 kts 57°
2026-04-26 15:21 50.82060 -3.97040 2493 ft 134 kts 57°
2026-04-26 15:22 50.82604 -3.95838 2498 ft 135 kts 57°
2026-04-26 15:22 50.83149 -3.94630 2516 ft 135 kts 57°
2026-04-26 15:22 50.83695 -3.93432 2526 ft 134 kts 56°
2026-04-26 15:22 50.84237 -3.92238 2514 ft 134 kts 57°
2026-04-26 15:23 50.84784 -3.91042 2560 ft 134 kts 56°
2026-04-26 15:23 50.85340 -3.89845 2561 ft 135 kts 56°
2026-04-26 15:23 50.85891 -3.88659 2551 ft 134 kts 54°
2026-04-26 15:23 50.86447 -3.87475 2536 ft 134 kts 56°
2026-04-26 15:24 50.87001 -3.86284 2509 ft 134 kts 56°
2026-04-26 15:24 50.87557 -3.85099 2525 ft 133 kts 55°
2026-04-26 15:24 50.88105 -3.83922 2560 ft 134 kts 55°
2026-04-26 15:24 50.88660 -3.82765 2499 ft 131 kts 56°
2026-04-26 15:25 50.89214 -3.81602 2517 ft 133 kts 57°
2026-04-26 15:25 50.89583 -3.80828 2511 ft 133 kts 57°
2026-04-26 15:25 50.90327 -3.79265 2512 ft 134 kts 56°
2026-04-26 15:25 50.90884 -3.78085 2536 ft 133 kts 57°
2026-04-26 15:26 50.91448 -3.76894 2530 ft 135 kts 56°
2026-04-26 15:26 50.92010 -3.75708 2524 ft 134 kts 56°
2026-04-26 15:26 50.92557 -3.74558 2528 ft 133 kts 57°
2026-04-26 15:26 50.93123 -3.73394 2521 ft 133 kts 56°
2026-04-26 15:27 50.93689 -3.72228 2521 ft 134 kts 56°
2026-04-26 15:27 50.94253 -3.71060 2541 ft 133 kts 56°
2026-04-26 15:27 50.94815 -3.69893 2520 ft 135 kts 57°
2026-04-26 15:27 50.95381 -3.68712 2508 ft 134 kts 56°
2026-04-26 15:28 50.95942 -3.67524 2534 ft 135 kts 57°
2026-04-26 15:28 50.96506 -3.66352 2525 ft 133 kts 57°
2026-04-26 15:28 50.97067 -3.65172 2514 ft 134 kts 57°
2026-04-26 15:28 50.97624 -3.63991 2517 ft 133 kts 57°
2026-04-26 15:29 50.98153 -3.62787 2502 ft 134 kts 59°
2026-04-26 15:29 50.98685 -3.61557 2511 ft 135 kts 60°
2026-04-26 15:29 50.99685 -3.59075 2543 ft 133 kts 63°
2026-04-26 15:30 51.00596 -3.56529 2524 ft 131 kts 64°
2026-04-26 15:30 51.01050 -3.55256 2516 ft 132 kts 64°
2026-04-26 15:30 51.01501 -3.53986 2516 ft 132 kts 64°
2026-04-26 15:31 51.01954 -3.52713 2508 ft 133 kts 64°
2026-04-26 15:31 51.02867 -3.50140 2543 ft 133 kts 63°
2026-04-26 15:31 51.03319 -3.48864 2517 ft 133 kts 64°
2026-04-26 15:32 51.04070 -3.46727 2538 ft 133 kts 63°
2026-04-26 15:32 51.04670 -3.45040 2524 ft 133 kts 64°
2026-04-26 15:32 51.05121 -3.43761 2508 ft 133 kts 65°
2026-04-26 15:33 51.05579 -3.42462 2522 ft 134 kts 65°
2026-04-26 15:33 51.06028 -3.41188 2523 ft 134 kts 64°
2026-04-26 15:33 51.06482 -3.39904 2523 ft 134 kts 64°
2026-04-26 15:33 51.06932 -3.38627 2516 ft 133 kts 65°
2026-04-26 15:34 51.07381 -3.37362 2574 ft 133 kts 62°
2026-04-26 15:34 51.07836 -3.36092 2526 ft 132 kts 64°
2026-04-26 15:34 51.08283 -3.34833 2532 ft 134 kts 63°
2026-04-26 15:34 51.08763 -3.33561 2513 ft 134 kts 61°
2026-04-26 15:35 51.09270 -3.32324 2523 ft 134 kts 60°
2026-04-26 15:35 51.09783 -3.31087 2504 ft 135 kts 60°
2026-04-26 15:35 51.10291 -3.29854 2543 ft 136 kts 60°
2026-04-26 15:35 51.10818 -3.28595 2528 ft 134 kts 60°
2026-04-26 15:36 51.11336 -3.27350 2557 ft 135 kts 59°
2026-04-26 15:36 51.11854 -3.26110 2519 ft 134 kts 59°
2026-04-26 15:36 51.12365 -3.24877 2520 ft 134 kts 60°
2026-04-26 15:36 51.12879 -3.23635 2550 ft 134 kts 58°
2026-04-26 15:37 51.13390 -3.22418 2534 ft 132 kts 60°
2026-04-26 15:37 51.13917 -3.21194 2497 ft 135 kts 58°
2026-04-26 15:37 51.14470 -3.19979 2507 ft 136 kts 56°
2026-04-26 15:37 51.15028 -3.18765 2492 ft 136 kts 57°
2026-04-26 15:38 51.15570 -3.17586 2538 ft 136 kts 56°
2026-04-26 15:38 51.16136 -3.16375 2487 ft 134 kts 56°
2026-04-26 15:38 51.16684 -3.15197 2507 ft 134 kts 56°
2026-04-26 15:38 51.17239 -3.14004 2478 ft 134 kts 56°
2026-04-26 15:39 51.17794 -3.12807 2473 ft 135 kts 57°
2026-04-26 15:39 51.18352 -3.11600 2476 ft 135 kts 57°
2026-04-26 15:39 51.18911 -3.10386 2485 ft 135 kts 57°
2026-04-26 15:39 51.19289 -3.09565 2508 ft 136 kts 57°
2026-04-26 15:40 51.20026 -3.07962 2486 ft 135 kts 56°
2026-04-26 15:40 51.20582 -3.06752 2515 ft 135 kts 56°
2026-04-26 15:40 51.21141 -3.05537 2503 ft 135 kts 56°
2026-04-26 15:40 51.21700 -3.04318 2503 ft 136 kts 56°
2026-04-26 15:41 51.22255 -3.03107 2503 ft 136 kts 57°
2026-04-26 15:41 51.22819 -3.01874 2502 ft 137 kts 56°
2026-04-26 15:41 51.23379 -3.00654 2501 ft 136 kts 56°
2026-04-26 15:41 51.23938 -2.99437 2514 ft 135 kts 55°
2026-04-26 15:42 51.24501 -2.98227 2511 ft 135 kts 56°
2026-04-26 15:42 51.25058 -2.97031 2506 ft 134 kts 56°
2026-04-26 15:42 51.25616 -2.95831 2477 ft 134 kts 56°
2026-04-26 15:42 51.26173 -2.94627 2470 ft 135 kts 57°
2026-04-26 15:43 51.26738 -2.93424 2504 ft 136 kts 54°
2026-04-26 15:43 51.27369 -2.92296 2500 ft 136 kts 50°
2026-04-26 15:43 51.28670 -2.90077 2514 ft 137 kts 49°
2026-04-26 15:44 51.29321 -2.88970 2513 ft 138 kts 49°
2026-04-26 15:44 51.30622 -2.86753 2501 ft 138 kts 51°
2026-04-26 15:44 51.31267 -2.85653 2504 ft 137 kts 49°
2026-04-26 15:45 51.32570 -2.83430 2506 ft 138 kts 49°
2026-04-26 15:45 51.33224 -2.82315 2534 ft 137 kts 49°
2026-04-26 15:46 51.34528 -2.80095 2510 ft 136 kts 49°
2026-04-26 15:46 51.35178 -2.78991 2520 ft 136 kts 49°
2026-04-26 15:46 51.35828 -2.77882 2505 ft 138 kts 49°
2026-04-26 15:46 51.36050 -2.77503 2508 ft 138 kts 50°
2026-04-26 15:47 51.37137 -2.75644 2527 ft 137 kts 50°
2026-04-26 15:47 51.38448 -2.73403 2510 ft 137 kts 49°
2026-04-26 15:47 51.39126 -2.72323 2503 ft 138 kts 46°
2026-04-26 15:48 51.39598 -2.71611 2502 ft 138 kts 46°
2026-04-26 15:48 51.40293 -2.70582 2516 ft 137 kts 45°
2026-04-26 15:48 51.40990 -2.69547 2496 ft 138 kts 45°
2026-04-26 15:48 51.41693 -2.68498 2505 ft 138 kts 47°
2026-04-26 15:49 51.42391 -2.67460 2506 ft 137 kts 45°
2026-04-26 15:49 51.43091 -2.66416 2495 ft 138 kts 45°
2026-04-26 15:49 51.43796 -2.65368 2513 ft 138 kts 45°
2026-04-26 15:49 51.44500 -2.64324 2494 ft 138 kts 44°
2026-04-26 15:50 51.45200 -2.63282 2504 ft 138 kts 45°
2026-04-26 15:50 51.45907 -2.62227 2499 ft 139 kts 45°
2026-04-26 15:50 51.46510 -2.61046 2508 ft 136 kts 62°
2026-04-26 15:50 51.46921 -2.59783 2547 ft 118 kts 65°
2026-04-26 15:51 51.47328 -2.58643 2486 ft 122 kts 64°
2026-04-26 15:51 51.47761 -2.57456 2513 ft 122 kts 62°
2026-04-26 15:51 51.48198 -2.56292 2505 ft 121 kts 61°
2026-04-26 15:51 51.48635 -2.55128 2505 ft 122 kts 61°
2026-04-26 15:52 51.49073 -2.53951 2505 ft 123 kts 61°
2026-04-26 15:52 51.49508 -2.52786 2511 ft 121 kts 61°
2026-04-26 15:52 51.49941 -2.51618 2500 ft 121 kts 63°
2026-04-26 15:52 51.50226 -2.50845 2500 ft 122 kts 63°
2026-04-26 15:53 51.50805 -2.49272 2499 ft 123 kts 62°
2026-04-26 15:53 51.51236 -2.48095 2501 ft 123 kts 62°
2026-04-26 15:53 51.51671 -2.46902 2506 ft 124 kts 62°
2026-04-26 15:53 51.52107 -2.45723 2503 ft 123 kts 62°
2026-04-26 15:54 51.52542 -2.44541 2518 ft 123 kts 62°
2026-04-26 15:54 51.52974 -2.43376 2519 ft 122 kts 62°
2026-04-26 15:54 51.53416 -2.42190 2510 ft 122 kts 62°
2026-04-26 15:54 51.53848 -2.41019 2517 ft 122 kts 62°
2026-04-26 15:55 51.54282 -2.39840 2509 ft 122 kts 62°
2026-04-26 15:55 51.54709 -2.38681 2519 ft 122 kts 62°
2026-04-26 15:55 51.55136 -2.37518 2526 ft 122 kts 62°
2026-04-26 15:55 51.55564 -2.36361 2523 ft 122 kts 61°
2026-04-26 15:56 51.55997 -2.35183 2514 ft 123 kts 62°
2026-04-26 15:56 51.56434 -2.33990 2536 ft 121 kts 63°
2026-04-26 15:56 51.56865 -2.32822 2497 ft 123 kts 61°
2026-04-26 15:56 51.57293 -2.31642 2512 ft 123 kts 62°
2026-04-26 15:57 51.57729 -2.30451 2528 ft 122 kts 61°
2026-04-26 15:57 51.58165 -2.29285 2527 ft 121 kts 61°
2026-04-26 15:57 51.58600 -2.28117 2511 ft 123 kts 63°
2026-04-26 15:57 51.58886 -2.27331 2525 ft 123 kts 62°
2026-04-26 15:58 51.59463 -2.25765 2516 ft 121 kts 62°
2026-04-26 15:58 51.59889 -2.24607 2520 ft 121 kts 60°
2026-04-26 15:58 51.60321 -2.23421 2509 ft 123 kts 62°
2026-04-26 15:58 51.60749 -2.22234 2509 ft 122 kts 62°
2026-04-26 15:59 51.61177 -2.21050 2520 ft 122 kts 63°
2026-04-26 15:59 51.61601 -2.19884 2538 ft 122 kts 62°
2026-04-26 15:59 51.62035 -2.18723 2519 ft 121 kts 62°
2026-04-26 15:59 51.62487 -2.17600 2519 ft 124 kts 55°
2026-04-26 16:00 51.63190 -2.16805 2532 ft 125 kts 25°
2026-04-26 16:00 51.63996 -2.16257 2503 ft 125 kts 26°
2026-04-26 16:00 51.64777 -2.15649 2508 ft 125 kts 27°
2026-04-26 16:00 51.65525 -2.15072 2565 ft 107 kts 28°
2026-04-26 16:01 51.66164 -2.14616 2507 ft 101 kts 28°
2026-04-26 16:01 51.66813 -2.14148 2514 ft 103 kts 27°
2026-04-26 16:01 51.67462 -2.13676 2441 ft 101 kts 27°
2026-04-26 16:01 51.68104 -2.13217 2210 ft 100 kts 26°
2026-04-26 16:02 51.68698 -2.12801 1981 ft 89 kts 26°
2026-04-26 16:02 51.69203 -2.12473 1774 ft 69 kts 26°
2026-04-26 16:02 51.69611 -2.12157 1528 ft 63 kts 52°
2026-04-26 16:02 51.69798 -2.11801 1371 ft 63 kts 58°
2026-04-26 16:03 51.70154 -2.11028 1271 ft 65 kts 61°
2026-04-26 16:03 51.70417 -2.10455 1297 ft 58 kts 57°
2026-04-26 16:03 51.70633 -2.10005 1306 ft 46 kts 58°
2026-04-26 16:03 51.70828 -2.09596 1301 ft 46 kts 70°
2026-04-26 16:04 51.70845 -2.09128 1319 ft 37 kts 117°
2026-04-26 16:04 51.70711 -2.08867 1309 ft 29 kts 146°
2026-04-26 16:04 51.70551 -2.08673 1503 ft 22 kts 143°
2026-04-26 16:04 51.70480 -2.08616 1791 ft 2 kts 143°
2026-04-26 16:05 51.70482 -2.08614 1706 ft 0 kts 143°
2026-04-26 16:05 51.70482 -2.08615 1641 ft 0 kts 143°
2026-04-26 16:06 51.70482 -2.08616 1584 ft 0 kts 143°
2026-04-26 16:07 51.70482 -2.08615 1583 ft 0 kts 143°
2026-04-26 16:07 51.70482 -2.08616 1583 ft 0 kts 143°
2026-04-26 16:07 51.70482 -2.08615 1583 ft 0 kts 143°
2026-04-26 16:07 51.70482 -2.08616 1591 ft 0 kts 143°
2026-04-26 16:08 51.70482 -2.08615 1591 ft 0 kts 143°
2026-04-26 16:08 51.70482 -2.08616 1591 ft 0 kts 143°
2026-04-26 16:09 51.70482 -2.08615 1591 ft 0 kts 143°
2026-04-26 16:09 51.70482 -2.08616 1591 ft 0 kts 143°
2026-04-26 16:10 51.70482 -2.08615 1591 ft 0 kts 143°
2026-04-26 16:10 51.70482 -2.08616 1591 ft 0 kts 143°
2026-04-26 16:11 51.70482 -2.08615 1591 ft 0 kts 143°
2026-04-26 16:11 51.70482 -2.08616 1591 ft 0 kts 143°
2026-04-26 16:11 51.70481 -2.08615 1591 ft 2 kts 142°
2026-04-26 16:11 51.70491 -2.08619 1599 ft 6 kts 143°
2026-04-26 16:12 51.70363 -2.08516 1634 ft 58 kts 138°
2026-04-26 16:12 51.69900 -2.08100 1411 ft 83 kts 145°
2026-04-26 16:12 51.68955 -2.07445 1163 ft 65 kts 154°
2026-04-26 16:13 51.68560 -2.07178 1026 ft 59 kts 160°
2026-04-26 16:13 51.68192 -2.06969 921 ft 54 kts 164°
2026-04-26 16:13 51.67872 -2.06833 841 ft 40 kts 166°
2026-04-26 16:13 51.67647 -2.06755 759 ft 30 kts 170°
2026-04-26 16:14 51.67441 -2.06687 730 ft 30 kts 168°
2026-04-26 16:14 51.67234 -2.06619 704 ft 28 kts 169°
2026-04-26 16:14 51.67063 -2.06553 519 ft 6 kts 126°
2026-04-26 16:15 51.66993 -2.06456 500 ft 15 kts 122°
2026-04-26 16:15 51.66954 -2.06395 466 ft 9 kts 123°
2026-04-26 16:15 51.66941 -2.06369 435 ft 4 kts 124°
2026-04-26 16:16 51.66945 -2.06369 429 ft 0 kts 154°
2026-04-26 16:16 51.66944 -2.06371 428 ft 0 kts 132°
2026-04-26 16:17 51.66939 -2.06349 468 ft 9 kts 135°
2026-04-26 16:17 51.66876 -2.06259 501 ft 4 kts 135°
2026-04-26 16:17 51.66855 -2.06221 478 ft 7 kts 77°
2026-04-26 16:17 51.66865 -2.06224 427 ft 0 kts 92°